sensor_id;sensor_type;location;lat;lon;timestamp;pressure;altitude;pressure_sealevel;temperature;humidity
35758;BME280;21879;50.110;18.900;2023-03-26T00:00:27;97729.23;;;9.69;56.09
35758;BME280;21879;50.110;18.900;2023-03-26T00:11:14;97735.41;;;9.63;56.39
35758;BME280;21879;50.110;18.900;2023-03-26T00:21:40;97732.79;;;9.48;57.59
35758;BME280;21879;50.110;18.900;2023-03-26T00:32:06;97739.60;;;9.36;58.81
35758;BME280;21879;50.110;18.900;2023-03-26T00:42:32;97719.35;;;9.16;59.70
35758;BME280;21879;50.110;18.900;2023-03-26T00:52:59;97712.27;;;9.15;60.06
35758;BME280;21879;50.110;18.900;2023-03-26T01:03:26;97695.26;;;9.16;59.89
35758;BME280;21879;50.110;18.900;2023-03-26T01:13:56;97691.90;;;9.19;59.75
35758;BME280;21879;50.110;18.900;2023-03-26T01:24:22;97685.23;;;9.22;59.08
35758;BME280;21879;50.110;18.900;2023-03-26T01:34:54;97680.95;;;9.11;58.85
35758;BME280;21879;50.110;18.900;2023-03-26T01:45:29;97676.39;;;9.14;58.61
35758;BME280;21879;50.110;18.900;2023-03-26T01:56:05;97676.55;;;8.97;58.44
35758;BME280;21879;50.110;18.900;2023-03-26T02:06:40;97673.83;;;8.85;58.49
35758;BME280;21879;50.110;18.900;2023-03-26T02:17:09;97667.01;;;8.80;58.86
35758;BME280;21879;50.110;18.900;2023-03-26T02:27:35;97667.55;;;8.69;59.13
35758;BME280;21879;50.110;18.900;2023-03-26T02:38:01;97678.02;;;8.65;59.16
35758;BME280;21879;50.110;18.900;2023-03-26T02:48:35;97678.44;;;8.80;59.39
35758;BME280;21879;50.110;18.900;2023-03-26T02:59:01;97662.16;;;8.98;59.28
35758;BME280;21879;50.110;18.900;2023-03-26T03:09:27;97647.91;;;8.99;58.88
35758;BME280;21879;50.110;18.900;2023-03-26T03:19:53;97653.91;;;8.85;58.86
35758;BME280;21879;50.110;18.900;2023-03-26T03:30:19;97649.94;;;8.75;59.27
35758;BME280;21879;50.110;18.900;2023-03-26T03:40:46;97648.39;;;8.65;59.68
35758;BME280;21879;50.110;18.900;2023-03-26T03:51:11;97651.97;;;8.59;59.73
35758;BME280;21879;50.110;18.900;2023-03-26T04:01:37;97663.85;;;8.73;59.85
35758;BME280;21879;50.110;18.900;2023-03-26T04:12:07;97664.67;;;8.75;59.65
35758;BME280;21879;50.110;18.900;2023-03-26T04:22:33;97656.80;;;8.61;59.58
35758;BME280;21879;50.110;18.900;2023-03-26T04:33:00;97656.95;;;8.53;59.87
35758;BME280;21879;50.110;18.900;2023-03-26T04:43:28;97655.73;;;8.52;59.78
35758;BME280;21879;50.110;18.900;2023-03-26T04:53:56;97654.75;;;8.59;59.91
35758;BME280;21879;50.110;18.900;2023-03-26T05:04:22;97655.84;;;8.56;59.92
35758;BME280;21879;50.110;18.900;2023-03-26T05:14:48;97649.90;;;8.50;59.88
35758;BME280;21879;50.110;18.900;2023-03-26T05:25:14;97647.64;;;8.39;59.90
35758;BME280;21879;50.110;18.900;2023-03-26T05:35:40;97646.88;;;8.32;59.88
35758;BME280;21879;50.110;18.900;2023-03-26T05:46:07;97658.23;;;8.37;59.87
35758;BME280;21879;50.110;18.900;2023-03-26T05:56:32;97658.64;;;8.45;59.66
35758;BME280;21879;50.110;18.900;2023-03-26T06:06:59;97660.71;;;8.55;59.75
35758;BME280;21879;50.110;18.900;2023-03-26T06:17:27;97671.38;;;8.68;59.50
35758;BME280;21879;50.110;18.900;2023-03-26T06:27:53;97669.70;;;8.65;59.43
35758;BME280;21879;50.110;18.900;2023-03-26T06:38:19;97672.10;;;8.66;59.61
35758;BME280;21879;50.110;18.900;2023-03-26T06:48:45;97668.75;;;8.97;60.00
35758;BME280;21879;50.110;18.900;2023-03-26T06:59:11;97668.41;;;9.32;59.16
35758;BME280;21879;50.110;18.900;2023-03-26T07:09:37;97669.13;;;9.30;58.71
35758;BME280;21879;50.110;18.900;2023-03-26T07:20:04;97672.49;;;9.27;58.67
35758;BME280;21879;50.110;18.900;2023-03-26T07:30:35;97667.35;;;9.32;58.58
35758;BME280;21879;50.110;18.900;2023-03-26T07:41:07;97667.82;;;9.34;58.49
35758;BME280;21879;50.110;18.900;2023-03-26T07:51:36;97682.35;;;9.45;58.74
35758;BME280;21879;50.110;18.900;2023-03-26T08:02:49;97674.33;;;9.62;58.73
35758;BME280;21879;50.110;18.900;2023-03-26T08:13:27;97666.31;;;9.94;58.43
35758;BME280;21879;50.110;18.900;2023-03-26T08:24:03;97661.91;;;10.39;58.68
35758;BME280;21879;50.110;18.900;2023-03-26T08:34:33;97653.43;;;10.85;57.42
35758;BME280;21879;50.110;18.900;2023-03-26T08:56:09;97626.31;;;11.85;55.52
35758;BME280;21879;50.110;18.900;2023-03-26T09:18:07;97614.83;;;12.53;53.29
35758;BME280;21879;50.110;18.900;2023-03-26T09:29:09;97602.18;;;12.40;52.45
35758;BME280;21879;50.110;18.900;2023-03-26T09:39:47;97610.13;;;12.23;52.09
35758;BME280;21879;50.110;18.900;2023-03-26T09:50:26;97604.95;;;11.89;52.11
35758;BME280;21879;50.110;18.900;2023-03-26T10:00:58;97599.42;;;11.93;52.64
35758;BME280;21879;50.110;18.900;2023-03-26T10:11:36;97594.02;;;12.14;52.49
35758;BME280;21879;50.110;18.900;2023-03-26T10:22:19;97575.23;;;12.28;51.98
35758;BME280;21879;50.110;18.900;2023-03-26T10:32:56;97572.00;;;12.21;51.43
35758;BME280;21879;50.110;18.900;2023-03-26T10:54:51;97566.77;;;11.95;51.17
35758;BME280;21879;50.110;18.900;2023-03-26T11:05:39;97557.52;;;11.91;51.20
35758;BME280;21879;50.110;18.900;2023-03-26T11:16:14;97537.83;;;12.12;51.24
35758;BME280;21879;50.110;18.900;2023-03-26T11:26:49;97524.50;;;12.29;50.58
35758;BME280;21879;50.110;18.900;2023-03-26T11:37:28;97517.77;;;12.31;50.03
35758;BME280;21879;50.110;18.900;2023-03-26T11:47:58;97519.66;;;12.33;49.21
35758;BME280;21879;50.110;18.900;2023-03-26T11:58:31;97507.34;;;12.31;48.76
35758;BME280;21879;50.110;18.900;2023-03-26T12:08:59;97505.70;;;12.33;48.57
35758;BME280;21879;50.110;18.900;2023-03-26T12:19:26;97484.91;;;12.44;49.13
35758;BME280;21879;50.110;18.900;2023-03-26T12:30:10;97472.98;;;12.51;48.98
35758;BME280;21879;50.110;18.900;2023-03-26T12:40:37;97463.77;;;12.46;48.94
35758;BME280;21879;50.110;18.900;2023-03-26T12:51:05;97453.66;;;12.36;49.06
35758;BME280;21879;50.110;18.900;2023-03-26T13:01:44;97439.48;;;12.42;48.80
35758;BME280;21879;50.110;18.900;2023-03-26T13:12:23;97433.58;;;12.41;48.36
35758;BME280;21879;50.110;18.900;2023-03-26T13:22:58;97408.49;;;12.51;48.42
35758;BME280;21879;50.110;18.900;2023-03-26T13:33:34;97391.34;;;12.57;48.34
35758;BME280;21879;50.110;18.900;2023-03-26T13:44:08;97384.60;;;12.55;47.36
35758;BME280;21879;50.110;18.900;2023-03-26T13:54:44;97388.84;;;12.54;46.79
35758;BME280;21879;50.110;18.900;2023-03-26T14:05:16;97380.95;;;12.55;46.87
35758;BME280;21879;50.110;18.900;2023-03-26T14:15:48;97374.54;;;12.63;47.06
35758;BME280;21879;50.110;18.900;2023-03-26T14:26:23;97361.73;;;12.69;46.82
35758;BME280;21879;50.110;18.900;2023-03-26T14:37:09;97356.97;;;12.66;46.36
35758;BME280;21879;50.110;18.900;2023-03-26T14:48:01;97351.59;;;12.57;46.46
35758;BME280;21879;50.110;18.900;2023-03-26T14:58:57;97342.08;;;12.51;46.78
35758;BME280;21879;50.110;18.900;2023-03-26T15:32:00;97318.80;;;12.61;45.42
35758;BME280;21879;50.110;18.900;2023-03-26T15:42:42;97318.45;;;12.66;44.94
35758;BME280;21879;50.110;18.900;2023-03-26T15:53:18;97310.66;;;12.64;44.89
35758;BME280;21879;50.110;18.900;2023-03-26T16:03:56;97308.77;;;12.60;44.87
35758;BME280;21879;50.110;18.900;2023-03-26T16:14:40;97299.59;;;12.58;45.11
35758;BME280;21879;50.110;18.900;2023-03-26T16:25:25;97292.38;;;12.55;45.31
35758;BME280;21879;50.110;18.900;2023-03-26T16:36:08;97289.71;;;12.47;45.41
35758;BME280;21879;50.110;18.900;2023-03-26T16:46:56;97292.73;;;12.33;45.59
35758;BME280;21879;50.110;18.900;2023-03-26T16:57:28;97287.84;;;12.29;45.98
35758;BME280;21879;50.110;18.900;2023-03-26T17:08:03;97291.28;;;12.21;46.09
35758;BME280;21879;50.110;18.900;2023-03-26T17:18:41;97294.73;;;12.13;46.19
35758;BME280;21879;50.110;18.900;2023-03-26T17:29:20;97289.80;;;11.96;46.05
35758;BME280;21879;50.110;18.900;2023-03-26T17:51:02;97290.28;;;11.72;45.92
35758;BME280;21879;50.110;18.900;2023-03-26T18:01:35;97291.54;;;11.66;45.50
35758;BME280;21879;50.110;18.900;2023-03-26T18:12:25;97287.29;;;11.59;45.30
35758;BME280;21879;50.110;18.900;2023-03-26T18:22:54;97304.89;;;11.44;45.95
35758;BME280;21879;50.110;18.900;2023-03-26T18:33:21;97313.64;;;11.32;47.09
35758;BME280;21879;50.110;18.900;2023-03-26T18:43:46;97321.52;;;11.21;48.35
35758;BME280;21879;50.110;18.900;2023-03-26T18:54:17;97317.43;;;11.13;49.42
35758;BME280;21879;50.110;18.900;2023-03-26T19:04:44;97316.91;;;11.08;50.07
35758;BME280;21879;50.110;18.900;2023-03-26T19:15:14;97309.45;;;11.02;50.71
35758;BME280;21879;50.110;18.900;2023-03-26T19:25:40;97311.79;;;10.89;51.74
35758;BME280;21879;50.110;18.900;2023-03-26T19:36:17;97300.81;;;10.69;53.26
35758;BME280;21879;50.110;18.900;2023-03-26T19:46:46;97290.20;;;10.58;54.72
35758;BME280;21879;50.110;18.900;2023-03-26T19:57:17;97276.91;;;10.44;55.88
35758;BME280;21879;50.110;18.900;2023-03-26T20:07:43;97263.42;;;10.42;57.25
35758;BME280;21879;50.110;18.900;2023-03-26T20:18:09;97253.83;;;10.49;58.22
35758;BME280;21879;50.110;18.900;2023-03-26T20:28:35;97236.69;;;10.52;59.16
35758;BME280;21879;50.110;18.900;2023-03-26T20:39:16;97215.80;;;10.64;59.67
35758;BME280;21879;50.110;18.900;2023-03-26T20:49:41;97205.45;;;10.56;60.06
35758;BME280;21879;50.110;18.900;2023-03-26T21:00:11;97178.39;;;10.55;60.50
35758;BME280;21879;50.110;18.900;2023-03-26T21:10:43;97170.38;;;10.65;60.71
35758;BME280;21879;50.110;18.900;2023-03-26T21:21:24;97165.27;;;10.57;61.00
35758;BME280;21879;50.110;18.900;2023-03-26T21:31:54;97170.02;;;10.71;61.30
35758;BME280;21879;50.110;18.900;2023-03-26T21:42:21;97172.66;;;10.75;61.50
35758;BME280;21879;50.110;18.900;2023-03-26T21:52:52;97158.85;;;10.72;61.52
35758;BME280;21879;50.110;18.900;2023-03-26T22:03:23;97142.67;;;10.67;61.76
35758;BME280;21879;50.110;18.900;2023-03-26T22:13:50;97143.68;;;10.78;61.92
35758;BME280;21879;50.110;18.900;2023-03-26T22:24:17;97149.83;;;10.71;61.99
35758;BME280;21879;50.110;18.900;2023-03-26T22:34:43;97146.99;;;10.68;62.33
35758;BME280;21879;50.110;18.900;2023-03-26T22:45:10;97134.24;;;10.60;62.39
35758;BME280;21879;50.110;18.900;2023-03-26T22:55:35;97127.83;;;10.59;62.40
35758;BME280;21879;50.110;18.900;2023-03-26T23:06:02;97103.64;;;10.40;62.58
35758;BME280;21879;50.110;18.900;2023-03-26T23:16:29;97098.13;;;10.49;62.97
35758;BME280;21879;50.110;18.900;2023-03-26T23:26:55;97083.08;;;10.66;62.95
35758;BME280;21879;50.110;18.900;2023-03-26T23:37:23;97084.20;;;10.79;62.82
35758;BME280;21879;50.110;18.900;2023-03-26T23:47:49;97074.77;;;10.60;62.58
35758;BME280;21879;50.110;18.900;2023-03-26T23:58:16;97080.30;;;10.71;63.14
